createdAt,value
2023-03-28T00:02:02.744Z,99.90
2023-03-28T00:05:28.048Z,99.90
2023-03-28T00:08:52.438Z,99.90
2023-03-28T00:12:16.310Z,99.90
2023-03-28T00:15:40.361Z,99.90
2023-03-28T00:19:07.847Z,99.90
2023-03-28T00:22:31.895Z,99.90
2023-03-28T00:25:56.246Z,99.90
2023-03-28T00:29:21.486Z,99.90
2023-03-28T00:32:45.579Z,99.90
2023-03-28T00:36:14.647Z,99.90
2023-03-28T00:39:39.977Z,99.90
2023-03-28T00:43:03.656Z,99.90
2023-03-28T00:46:32.278Z,99.90
2023-03-28T00:49:59.712Z,99.90
2023-03-28T00:53:26.637Z,99.90
2023-03-28T00:56:54.678Z,99.90
2023-03-28T01:00:21.034Z,99.90
2023-03-28T01:03:47.423Z,99.90
2023-03-28T01:07:12.396Z,99.90
2023-03-28T01:10:37.653Z,99.90
2023-03-28T01:14:06.950Z,99.90
2023-03-28T01:17:31.640Z,99.90
2023-03-28T01:21:25.472Z,99.90
2023-03-28T01:25:35.522Z,99.90
2023-03-28T01:29:44.245Z,99.90
2023-03-28T01:33:36.034Z,99.90
2023-03-28T01:37:10.176Z,99.90
2023-03-28T01:40:51.431Z,99.90
2023-03-28T01:44:24.780Z,99.90
2023-03-28T01:47:57.339Z,99.90
2023-03-28T01:51:29.206Z,99.90
2023-03-28T01:55:05.425Z,99.90
2023-03-28T01:58:36.347Z,99.90
2023-03-28T02:02:08.591Z,99.90
2023-03-28T02:05:35.547Z,99.90
2023-03-28T02:09:01.216Z,99.90
2023-03-28T02:12:58.088Z,99.90
2023-03-28T02:16:42.938Z,99.90
2023-03-28T02:20:36.344Z,99.90
2023-03-28T02:24:33.218Z,99.90
2023-03-28T02:28:17.392Z,99.90
2023-03-28T02:31:59.722Z,99.90
2023-03-28T02:35:28.806Z,99.90
2023-03-28T02:39:05.202Z,99.90
2023-03-28T02:42:50.295Z,99.90
2023-03-28T02:46:30.004Z,99.90
2023-03-28T02:50:03.388Z,99.90
2023-03-28T02:53:38.450Z,99.90
2023-03-28T02:57:08.166Z,99.90
2023-03-28T03:00:39.350Z,99.90
2023-03-28T03:04:04.955Z,99.90
2023-03-28T03:07:30.142Z,99.90
2023-03-28T03:10:53.889Z,99.90
2023-03-28T03:14:17.868Z,99.90
2023-03-28T03:17:43.819Z,99.90
2023-03-28T03:21:09.258Z,99.90
2023-03-28T03:24:34.572Z,99.90
2023-03-28T03:27:58.466Z,99.90
2023-03-28T03:31:23.181Z,99.90
2023-03-28T03:35:07.876Z,99.90
2023-03-28T03:38:32.973Z,99.90
2023-03-28T03:41:58.096Z,99.90
2023-03-28T03:45:22.027Z,99.90
2023-03-28T03:48:49.876Z,99.90
2023-03-28T03:52:13.895Z,99.90
2023-03-28T03:55:40.901Z,99.90
2023-03-28T03:59:04.865Z,99.90
2023-03-28T04:02:31.594Z,99.90
2023-03-28T04:05:58.075Z,99.90
2023-03-28T04:09:24.361Z,99.90
2023-03-28T04:12:56.109Z,99.90
2023-03-28T04:16:20.881Z,99.90
2023-03-28T04:19:53.347Z,99.90
2023-03-28T04:23:18.447Z,99.90
2023-03-28T04:26:42.723Z,99.90
2023-03-28T04:30:11.524Z,99.90
2023-03-28T04:33:54.052Z,99.90
2023-03-28T04:37:18.972Z,99.90
2023-03-28T04:40:53.593Z,99.90
2023-03-28T04:44:37.225Z,99.90
2023-03-28T04:48:03.103Z,99.90
2023-03-28T04:51:28.540Z,99.90
2023-03-28T04:54:52.386Z,99.90
2023-03-28T04:58:20.037Z,99.90
2023-03-28T05:01:49.453Z,99.90
2023-03-28T05:05:39.874Z,99.90
2023-03-28T05:09:07.569Z,99.90
2023-03-28T05:12:31.563Z,99.90
2023-03-28T05:15:59.925Z,99.90
2023-03-28T05:19:49.682Z,99.90
2023-03-28T05:23:17.658Z,99.90
2023-03-28T05:26:45.372Z,99.90
2023-03-28T05:30:11.463Z,99.90
2023-03-28T05:33:37.922Z,99.90
2023-03-28T05:37:02.004Z,99.90
2023-03-28T05:40:31.517Z,99.90
2023-03-28T05:43:55.324Z,99.90
2023-03-28T05:47:34.355Z,99.90
2023-03-28T05:50:58.325Z,99.90
2023-03-28T05:54:22.273Z,99.90
2023-03-28T05:57:47.366Z,99.90
2023-03-28T06:01:20.108Z,99.90
2023-03-28T06:04:48.578Z,99.90
2023-03-28T06:08:12.454Z,99.90
2023-03-28T06:11:36.256Z,99.90
2023-03-28T06:15:07.141Z,99.90
2023-03-28T06:18:33.931Z,99.90
2023-03-28T06:21:57.678Z,99.90
2023-03-28T06:25:22.212Z,99.90
2023-03-28T06:28:46.687Z,99.90
2023-03-28T06:32:19.247Z,99.90
2023-03-28T06:35:44.166Z,99.90
2023-03-28T06:39:07.891Z,99.90
2023-03-28T06:42:31.667Z,99.90
2023-03-28T06:46:11.357Z,99.90
2023-03-28T06:49:41.826Z,97.10
2023-03-28T06:53:31.466Z,95.20
2023-03-28T06:56:55.571Z,92.50
2023-03-28T07:00:20.182Z,91.80
2023-03-28T07:04:16.137Z,91.20
2023-03-28T07:07:43.672Z,84.70
2023-03-28T07:11:08.036Z,80.60
2023-03-28T07:14:32.374Z,81.00
2023-03-28T07:17:57.822Z,76.90
2023-03-28T07:21:21.447Z,76.90
2023-03-28T07:24:46.425Z,78.80
2023-03-28T07:28:11.286Z,86.40
2023-03-28T07:31:35.218Z,86.20
2023-03-28T07:34:59.072Z,86.20
2023-03-28T07:38:24.326Z,82.70
2023-03-28T07:41:52.863Z,82.10
2023-03-28T07:45:17.293Z,80.10
2023-03-28T07:48:41.888Z,77.10
2023-03-28T07:52:06.140Z,74.10
2023-03-28T07:55:31.880Z,73.60
2023-03-28T07:59:01.826Z,71.50
2023-03-28T08:02:25.578Z,70.60
2023-03-28T08:05:52.685Z,69.50
2023-03-28T08:09:19.108Z,66.50
2023-03-28T08:12:46.282Z,67.10
2023-03-28T08:16:11.791Z,66.00
2023-03-28T08:19:36.424Z,64.30
2023-03-28T08:23:23.030Z,62.60
2023-03-28T08:27:06.894Z,63.10
2023-03-28T08:30:31.312Z,61.80
2023-03-28T08:33:59.905Z,58.80
2023-03-28T08:37:29.793Z,59.00
2023-03-28T08:41:05.484Z,57.30
2023-03-28T08:44:58.539Z,56.90
2023-03-28T08:48:28.252Z,57.90
2023-03-28T08:51:59.027Z,57.00
2023-03-28T08:55:30.584Z,54.80
2023-03-28T08:59:04.608Z,52.50
2023-03-28T09:02:30.765Z,50.00
2023-03-28T09:06:01.140Z,48.50
2023-03-28T09:09:50.584Z,47.60
2023-03-28T09:13:36.163Z,46.30
2023-03-28T09:17:10.165Z,44.90
2023-03-28T09:20:43.312Z,44.50
2023-03-28T09:24:50.658Z,42.90
2023-03-28T09:28:28.209Z,43.00
2023-03-28T09:31:57.298Z,44.30
2023-03-28T09:35:23.942Z,45.70
2023-03-28T09:38:50.691Z,48.00
2023-03-28T09:42:27.587Z,50.60
2023-03-28T09:46:22.807Z,54.50
2023-03-28T09:49:46.685Z,52.10
2023-03-28T09:53:22.333Z,53.60
2023-03-28T09:56:49.656Z,59.50
2023-03-28T10:00:37.828Z,57.80
2023-03-28T10:04:36.388Z,58.10
2023-03-28T10:08:26.479Z,59.30
2023-03-28T10:12:04.604Z,61.30
2023-03-28T10:15:35.964Z,64.50
2023-03-28T10:19:24.717Z,63.40
2023-03-28T10:23:04.358Z,64.60
2023-03-28T10:26:30.528Z,60.00
2023-03-28T10:29:59.585Z,57.10
2023-03-28T10:33:33.518Z,54.60
2023-03-28T10:37:25.972Z,49.30
2023-03-28T10:41:12.180Z,46.80
2023-03-28T10:45:01.174Z,48.70
2023-03-28T10:48:31.420Z,50.90
2023-03-28T10:52:00.573Z,52.50
2023-03-28T10:55:38.664Z,54.00
2023-03-28T10:59:35.189Z,54.10
2023-03-28T11:03:12.131Z,57.00
2023-03-28T11:06:51.275Z,57.70
2023-03-28T11:10:25.470Z,57.50
2023-03-28T11:14:10.803Z,60.80
2023-03-28T11:17:45.548Z,59.10
2023-03-28T11:21:23.429Z,58.60
2023-03-28T11:24:57.505Z,58.00
2023-03-28T11:28:52.613Z,58.80
2023-03-28T11:32:22.997Z,59.00
2023-03-28T11:35:52.130Z,58.30
2023-03-28T11:39:21.655Z,59.30
2023-03-28T11:42:52.160Z,58.70
2023-03-28T11:46:21.981Z,59.10
2023-03-28T11:49:51.841Z,59.00
2023-03-28T11:53:46.712Z,58.70
2023-03-28T11:57:18.982Z,59.40
2023-03-28T12:01:02.418Z,60.90
2023-03-28T12:04:29.755Z,58.10
2023-03-28T12:07:57.991Z,55.90
2023-03-28T12:11:30.906Z,54.80
2023-03-28T12:15:05.088Z,55.40
2023-03-28T12:19:05.628Z,54.80
2023-03-28T12:22:53.587Z,53.10
2023-03-28T12:26:46.319Z,52.50
2023-03-28T12:30:21.064Z,53.10
2023-03-28T12:33:55.040Z,53.40
2023-03-28T12:37:48.477Z,54.00
2023-03-28T12:41:17.092Z,53.90
2023-03-28T12:44:45.908Z,52.70
2023-03-28T12:48:15.521Z,53.30
2023-03-28T12:51:43.731Z,53.60
2023-03-28T12:55:42.576Z,53.80
2023-03-28T12:59:52.560Z,52.60
2023-03-28T13:03:37.810Z,53.00
2023-03-28T13:07:08.525Z,52.70
2023-03-28T13:10:42.896Z,54.00
2023-03-28T13:14:24.298Z,54.20
2023-03-28T13:17:49.817Z,55.90
2023-03-28T13:21:13.633Z,56.10
2023-03-28T13:24:37.579Z,56.90
2023-03-28T13:28:23.144Z,56.80
2023-03-28T13:31:47.003Z,58.60
2023-03-28T13:35:55.055Z,58.80
2023-03-28T13:39:25.166Z,59.80
2023-03-28T13:42:58.763Z,59.00
2023-03-28T13:46:29.424Z,57.90
2023-03-28T13:50:00.083Z,58.10
2023-03-28T13:53:25.535Z,57.10
2023-03-28T13:56:54.015Z,56.90
2023-03-28T14:00:21.821Z,56.00
2023-03-28T14:03:47.941Z,57.40
2023-03-28T14:07:14.294Z,57.40
2023-03-28T14:10:40.674Z,57.10
2023-03-28T14:14:11.288Z,59.30
2023-03-28T14:17:36.286Z,59.30
2023-03-28T14:21:01.144Z,57.80
2023-03-28T14:24:27.509Z,58.50
2023-03-28T14:27:52.809Z,58.80
2023-03-28T14:31:30.835Z,57.00
2023-03-28T14:34:56.435Z,57.80
2023-03-28T14:38:31.914Z,57.20
2023-03-28T14:41:56.756Z,57.30
2023-03-28T14:45:20.715Z,58.20
2023-03-28T14:48:46.334Z,59.20
2023-03-28T14:52:16.207Z,58.60
2023-03-28T14:55:41.969Z,58.60
2023-03-28T14:59:06.362Z,59.10
2023-03-28T15:02:36.413Z,59.70
2023-03-28T15:06:02.798Z,59.70
2023-03-28T15:09:32.778Z,57.80
2023-03-28T15:13:08.217Z,57.00
2023-03-28T15:16:36.490Z,58.00
2023-03-28T15:20:00.323Z,58.60
2023-03-28T15:23:29.174Z,58.70
2023-03-28T15:26:57.540Z,59.20
2023-03-28T15:30:22.556Z,58.10
2023-03-28T15:33:48.573Z,57.60
2023-03-28T15:37:19.936Z,57.90
2023-03-28T15:40:48.223Z,58.90
2023-03-28T15:44:23.454Z,59.30
2023-03-28T15:47:48.908Z,60.80
2023-03-28T15:51:17.135Z,60.10
2023-03-28T15:54:45.816Z,60.70
2023-03-28T15:58:17.489Z,59.70
2023-03-28T16:01:41.956Z,59.90
2023-03-28T16:05:09.988Z,59.90
2023-03-28T16:08:38.326Z,59.60
2023-03-28T16:12:04.664Z,59.70
2023-03-28T16:15:41.646Z,59.50
2023-03-28T16:19:39.495Z,60.80
2023-03-28T16:23:04.044Z,61.00
2023-03-28T16:26:27.718Z,60.30
2023-03-28T16:29:51.786Z,61.90
2023-03-28T16:33:16.993Z,62.20
2023-03-28T16:36:43.980Z,62.20
2023-03-28T16:40:10.474Z,63.20
2023-03-28T16:43:34.104Z,63.40
2023-03-28T16:46:58.462Z,61.40
2023-03-28T16:50:23.504Z,61.90
2023-03-28T16:53:48.162Z,60.60
2023-03-28T16:57:12.057Z,61.00
2023-03-28T17:00:36.224Z,59.80
2023-03-28T17:03:59.996Z,60.70
2023-03-28T17:07:25.048Z,60.60
2023-03-28T17:10:48.693Z,61.20
2023-03-28T17:14:12.432Z,60.50
2023-03-28T17:17:36.256Z,61.80
2023-03-28T17:21:01.849Z,62.90
2023-03-28T17:24:27.127Z,63.00
2023-03-28T17:27:50.777Z,62.70
2023-03-28T17:31:16.782Z,62.80
2023-03-28T17:34:41.247Z,63.90
2023-03-28T17:38:05.203Z,63.80
2023-03-28T17:41:30.954Z,63.40
2023-03-28T17:44:54.942Z,63.20
2023-03-28T17:48:18.691Z,62.70
2023-03-28T17:51:42.478Z,63.30
2023-03-28T17:55:07.169Z,63.10
2023-03-28T17:58:32.516Z,63.90
2023-03-28T18:01:56.550Z,64.50
2023-03-28T18:05:22.346Z,65.00
2023-03-28T18:08:49.853Z,63.90
2023-03-28T18:12:13.998Z,65.00
2023-03-28T18:15:40.788Z,65.50
2023-03-28T18:19:06.737Z,65.90
2023-03-28T18:22:30.346Z,65.30
2023-03-28T18:25:54.065Z,65.80
2023-03-28T18:29:17.822Z,65.90
2023-03-28T18:32:43.125Z,66.70
2023-03-28T18:36:07.871Z,67.00
2023-03-28T18:39:31.636Z,67.30
2023-03-28T18:42:56.817Z,66.90
2023-03-28T18:46:20.778Z,66.60
2023-03-28T18:49:46.113Z,66.30
2023-03-28T18:53:09.925Z,66.90
2023-03-28T18:56:34.719Z,66.80
2023-03-28T18:59:58.529Z,65.80
2023-03-28T19:03:23.157Z,65.60
2023-03-28T19:06:49.170Z,65.00
2023-03-28T19:10:13.803Z,64.60
2023-03-28T19:13:37.592Z,63.80
2023-03-28T19:17:01.639Z,62.50
2023-03-28T19:20:25.263Z,61.70
2023-03-28T19:23:50.848Z,61.00
2023-03-28T19:27:14.705Z,61.90
2023-03-28T19:30:39.939Z,59.30
2023-03-28T19:34:03.828Z,58.70
2023-03-28T19:37:27.590Z,58.40
2023-03-28T19:40:58.121Z,58.30
2023-03-28T19:44:21.747Z,58.00
2023-03-28T19:47:45.443Z,57.40
2023-03-28T19:51:09.153Z,57.20
2023-03-28T19:54:32.745Z,57.40
2023-03-28T19:57:58.258Z,57.60
2023-03-28T20:01:22.077Z,57.00
2023-03-28T20:04:46.730Z,56.90
2023-03-28T20:08:10.995Z,56.60
2023-03-28T20:11:37.814Z,57.20
2023-03-28T20:15:02.765Z,56.60
2023-03-28T20:18:26.470Z,56.40
2023-03-28T20:21:50.073Z,56.00
2023-03-28T20:25:14.630Z,55.90
2023-03-28T20:28:39.939Z,56.70
2023-03-28T20:32:07.965Z,57.10
2023-03-28T20:35:33.066Z,58.10
2023-03-28T20:38:56.798Z,59.10
2023-03-28T20:42:20.498Z,60.10
2023-03-28T20:45:45.907Z,61.00
2023-03-28T20:49:11.826Z,60.40
2023-03-28T20:52:37.470Z,61.50
2023-03-28T20:56:03.338Z,62.60
2023-03-28T20:59:28.274Z,63.10
2023-03-28T21:02:53.856Z,63.70
2023-03-28T21:06:21.281Z,64.60
2023-03-28T21:09:45.589Z,65.60
2023-03-28T21:13:09.217Z,66.50
2023-03-28T21:16:33.478Z,66.70
2023-03-28T21:19:58.987Z,67.40
2023-03-28T21:23:24.521Z,67.30
2023-03-28T21:26:48.175Z,68.00
2023-03-28T21:30:13.805Z,67.90
2023-03-28T21:33:38.127Z,67.50
2023-03-28T21:37:01.859Z,68.30
2023-03-28T21:40:27.079Z,68.10
2023-03-28T21:43:51.699Z,69.20
2023-03-28T21:47:18.083Z,68.90
2023-03-28T21:50:42.315Z,69.80
2023-03-28T21:54:07.267Z,69.30
2023-03-28T21:57:33.492Z,70.10
2023-03-28T22:00:58.074Z,70.10
2023-03-28T22:04:22.023Z,70.90
2023-03-28T22:07:48.386Z,71.30
2023-03-28T22:11:16.424Z,71.00
2023-03-28T22:14:41.505Z,72.00
2023-03-28T22:18:08.992Z,72.60
2023-03-28T22:21:34.436Z,73.40
2023-03-28T22:25:03.692Z,74.20
2023-03-28T22:28:28.095Z,74.60
2023-03-28T22:31:53.580Z,75.70
2023-03-28T22:35:19.849Z,76.40
2023-03-28T22:38:43.832Z,78.20
2023-03-28T22:42:08.555Z,79.70
2023-03-28T22:45:33.947Z,80.60
2023-03-28T22:49:06.639Z,82.10
2023-03-28T22:52:32.018Z,84.80
2023-03-28T22:55:58.851Z,87.60
2023-03-28T22:59:23.084Z,89.50
2023-03-28T23:02:47.194Z,91.00
2023-03-28T23:06:13.569Z,91.90
2023-03-28T23:09:38.310Z,93.00
2023-03-28T23:13:03.997Z,93.70
2023-03-28T23:16:30.099Z,94.50
2023-03-28T23:19:54.307Z,95.50
2023-03-28T23:23:19.798Z,95.90
2023-03-28T23:26:43.353Z,96.40
2023-03-28T23:30:08.651Z,97.00
2023-03-28T23:33:33.094Z,97.40
2023-03-28T23:36:57.972Z,97.70
2023-03-28T23:40:24.321Z,98.00
2023-03-28T23:43:48.126Z,98.30
2023-03-28T23:47:20.125Z,98.60
2023-03-28T23:50:43.768Z,99.20
2023-03-28T23:54:08.611Z,99.40
2023-03-28T23:57:34.472Z,99.80
